sensor_id;sensor_type;location;lat;lon;timestamp;temperature;humidity
41882;DHT22;27562;47.524;12.404;2023-04-15T00:00:12;2.00;99.90
41882;DHT22;27562;47.524;12.404;2023-04-15T00:02:38;2.00;99.90
41882;DHT22;27562;47.524;12.404;2023-04-15T00:05:04;2.00;99.90
41882;DHT22;27562;47.524;12.404;2023-04-15T00:07:30;2.00;99.90
41882;DHT22;27562;47.524;12.404;2023-04-15T00:09:56;2.00;99.90
41882;DHT22;27562;47.524;12.404;2023-04-15T00:12:26;2.00;99.90
41882;DHT22;27562;47.524;12.404;2023-04-15T00:14:52;2.00;99.90
41882;DHT22;27562;47.524;12.404;2023-04-15T00:17:17;2.00;99.90
41882;DHT22;27562;47.524;12.404;2023-04-15T00:19:43;2.00;99.90
41882;DHT22;27562;47.524;12.404;2023-04-15T00:22:10;2.00;99.90
41882;DHT22;27562;47.524;12.404;2023-04-15T00:24:37;1.90;99.90
41882;DHT22;27562;47.524;12.404;2023-04-15T00:27:03;1.90;99.90
41882;DHT22;27562;47.524;12.404;2023-04-15T00:29:29;2.00;99.90
41882;DHT22;27562;47.524;12.404;2023-04-15T00:31:55;1.90;99.90
41882;DHT22;27562;47.524;12.404;2023-04-15T00:34:22;1.90;99.90
41882;DHT22;27562;47.524;12.404;2023-04-15T00:36:48;1.90;99.90
41882;DHT22;27562;47.524;12.404;2023-04-15T00:39:14;1.90;99.90
41882;DHT22;27562;47.524;12.404;2023-04-15T00:41:41;1.90;99.90
41882;DHT22;27562;47.524;12.404;2023-04-15T00:44:07;1.90;99.90
41882;DHT22;27562;47.524;12.404;2023-04-15T00:46:37;2.00;99.90
41882;DHT22;27562;47.524;12.404;2023-04-15T00:49:05;2.00;99.90
41882;DHT22;27562;47.524;12.404;2023-04-15T00:51:31;2.00;99.90
41882;DHT22;27562;47.524;12.404;2023-04-15T00:54:02;2.00;99.90
41882;DHT22;27562;47.524;12.404;2023-04-15T00:56:29;2.00;99.90
41882;DHT22;27562;47.524;12.404;2023-04-15T00:58:55;1.90;99.90
41882;DHT22;27562;47.524;12.404;2023-04-15T01:01:21;2.00;99.90
41882;DHT22;27562;47.524;12.404;2023-04-15T01:03:50;2.00;99.90
41882;DHT22;27562;47.524;12.404;2023-04-15T01:06:17;2.00;99.90
41882;DHT22;27562;47.524;12.404;2023-04-15T01:08:43;2.00;99.90
41882;DHT22;27562;47.524;12.404;2023-04-15T01:11:11;1.90;99.90
41882;DHT22;27562;47.524;12.404;2023-04-15T01:13:37;2.00;99.90
41882;DHT22;27562;47.524;12.404;2023-04-15T01:16:03;2.00;99.90
41882;DHT22;27562;47.524;12.404;2023-04-15T01:18:29;2.00;99.90
41882;DHT22;27562;47.524;12.404;2023-04-15T01:20:56;2.00;99.90
41882;DHT22;27562;47.524;12.404;2023-04-15T01:23:22;2.00;99.90
41882;DHT22;27562;47.524;12.404;2023-04-15T01:25:49;2.00;99.90
41882;DHT22;27562;47.524;12.404;2023-04-15T01:28:15;2.10;99.90
41882;DHT22;27562;47.524;12.404;2023-04-15T01:30:41;2.00;99.90
41882;DHT22;27562;47.524;12.404;2023-04-15T01:33:07;2.00;99.90
41882;DHT22;27562;47.524;12.404;2023-04-15T01:35:33;2.00;99.90
41882;DHT22;27562;47.524;12.404;2023-04-15T01:38:08;2.00;99.90
41882;DHT22;27562;47.524;12.404;2023-04-15T01:40:34;2.00;99.90
41882;DHT22;27562;47.524;12.404;2023-04-15T01:43:01;2.00;99.90
41882;DHT22;27562;47.524;12.404;2023-04-15T01:45:27;2.00;99.90
41882;DHT22;27562;47.524;12.404;2023-04-15T01:47:53;2.00;99.90
41882;DHT22;27562;47.524;12.404;2023-04-15T01:50:19;2.00;99.90
41882;DHT22;27562;47.524;12.404;2023-04-15T01:52:46;2.00;99.90
41882;DHT22;27562;47.524;12.404;2023-04-15T01:55:12;2.00;99.90
41882;DHT22;27562;47.524;12.404;2023-04-15T01:57:38;2.00;99.90
41882;DHT22;27562;47.524;12.404;2023-04-15T02:00:05;2.00;99.90
41882;DHT22;27562;47.524;12.404;2023-04-15T02:02:32;2.00;99.90
41882;DHT22;27562;47.524;12.404;2023-04-15T02:04:58;2.00;99.90
41882;DHT22;27562;47.524;12.404;2023-04-15T02:07:23;2.00;99.90
41882;DHT22;27562;47.524;12.404;2023-04-15T02:09:49;2.00;99.90
41882;DHT22;27562;47.524;12.404;2023-04-15T02:12:15;2.10;99.90
41882;DHT22;27562;47.524;12.404;2023-04-15T02:14:41;2.10;99.90
41882;DHT22;27562;47.524;12.404;2023-04-15T02:17:06;2.10;99.90
41882;DHT22;27562;47.524;12.404;2023-04-15T02:19:36;2.10;99.90
41882;DHT22;27562;47.524;12.404;2023-04-15T02:22:01;2.00;99.90
41882;DHT22;27562;47.524;12.404;2023-04-15T02:24:28;2.00;99.90
41882;DHT22;27562;47.524;12.404;2023-04-15T02:26:54;2.00;99.90
41882;DHT22;27562;47.524;12.404;2023-04-15T02:29:20;2.00;99.90
41882;DHT22;27562;47.524;12.404;2023-04-15T02:31:47;2.00;99.90
41882;DHT22;27562;47.524;12.404;2023-04-15T02:34:13;2.00;99.90
41882;DHT22;27562;47.524;12.404;2023-04-15T02:36:39;2.00;99.90
41882;DHT22;27562;47.524;12.404;2023-04-15T02:39:05;2.00;99.90
41882;DHT22;27562;47.524;12.404;2023-04-15T02:41:31;2.00;99.90
41882;DHT22;27562;47.524;12.404;2023-04-15T02:43:57;2.00;99.90
41882;DHT22;27562;47.524;12.404;2023-04-15T02:46:23;2.10;99.90
41882;DHT22;27562;47.524;12.404;2023-04-15T02:48:49;2.10;99.90
41882;DHT22;27562;47.524;12.404;2023-04-15T02:51:16;2.10;99.90
41882;DHT22;27562;47.524;12.404;2023-04-15T02:53:44;2.10;99.90
41882;DHT22;27562;47.524;12.404;2023-04-15T02:56:10;2.10;99.90
41882;DHT22;27562;47.524;12.404;2023-04-15T02:58:36;2.00;99.90
41882;DHT22;27562;47.524;12.404;2023-04-15T03:01:01;2.00;99.90
41882;DHT22;27562;47.524;12.404;2023-04-15T03:03:27;2.00;99.90
41882;DHT22;27562;47.524;12.404;2023-04-15T03:05:53;2.00;99.90
41882;DHT22;27562;47.524;12.404;2023-04-15T03:08:19;2.00;99.90
41882;DHT22;27562;47.524;12.404;2023-04-15T03:10:45;2.00;99.90
41882;DHT22;27562;47.524;12.404;2023-04-15T03:13:12;2.10;99.90
41882;DHT22;27562;47.524;12.404;2023-04-15T03:15:37;2.00;99.90
41882;DHT22;27562;47.524;12.404;2023-04-15T03:18:03;2.10;99.90
41882;DHT22;27562;47.524;12.404;2023-04-15T03:20:29;2.10;99.90
41882;DHT22;27562;47.524;12.404;2023-04-15T03:22:55;2.10;99.90
41882;DHT22;27562;47.524;12.404;2023-04-15T03:25:20;2.10;99.90
41882;DHT22;27562;47.524;12.404;2023-04-15T03:27:46;2.10;99.90
41882;DHT22;27562;47.524;12.404;2023-04-15T03:30:12;2.10;99.90
41882;DHT22;27562;47.524;12.404;2023-04-15T03:32:38;2.10;99.90
41882;DHT22;27562;47.524;12.404;2023-04-15T03:35:04;2.10;99.90
41882;DHT22;27562;47.524;12.404;2023-04-15T03:37:31;2.10;99.90
41882;DHT22;27562;47.524;12.404;2023-04-15T03:39:56;2.10;99.90
41882;DHT22;27562;47.524;12.404;2023-04-15T03:42:22;2.10;99.90
41882;DHT22;27562;47.524;12.404;2023-04-15T03:44:48;2.10;99.90
41882;DHT22;27562;47.524;12.404;2023-04-15T03:47:14;2.10;99.90
41882;DHT22;27562;47.524;12.404;2023-04-15T03:49:40;2.10;99.90
41882;DHT22;27562;47.524;12.404;2023-04-15T03:52:05;2.10;99.90
41882;DHT22;27562;47.524;12.404;2023-04-15T03:54:31;2.10;99.90
41882;DHT22;27562;47.524;12.404;2023-04-15T03:56:57;2.00;99.90
41882;DHT22;27562;47.524;12.404;2023-04-15T03:59:23;2.00;99.90
41882;DHT22;27562;47.524;12.404;2023-04-15T04:01:48;2.00;99.90
41882;DHT22;27562;47.524;12.404;2023-04-15T04:04:14;2.00;99.90
41882;DHT22;27562;47.524;12.404;2023-04-15T04:06:40;2.00;99.90
41882;DHT22;27562;47.524;12.404;2023-04-15T04:09:05;2.00;99.90
41882;DHT22;27562;47.524;12.404;2023-04-15T04:11:31;2.00;99.90
41882;DHT22;27562;47.524;12.404;2023-04-15T04:13:57;2.00;99.90
41882;DHT22;27562;47.524;12.404;2023-04-15T04:16:23;2.00;99.90
41882;DHT22;27562;47.524;12.404;2023-04-15T04:18:49;2.00;99.90
41882;DHT22;27562;47.524;12.404;2023-04-15T04:21:15;2.00;99.90
41882;DHT22;27562;47.524;12.404;2023-04-15T04:23:41;2.00;99.90
41882;DHT22;27562;47.524;12.404;2023-04-15T04:26:06;2.00;99.90
41882;DHT22;27562;47.524;12.404;2023-04-15T04:28:32;2.00;99.90
41882;DHT22;27562;47.524;12.404;2023-04-15T04:30:58;2.00;99.90
41882;DHT22;27562;47.524;12.404;2023-04-15T04:33:24;2.00;99.90
41882;DHT22;27562;47.524;12.404;2023-04-15T04:35:49;2.00;99.90
41882;DHT22;27562;47.524;12.404;2023-04-15T04:38:15;2.00;99.90
41882;DHT22;27562;47.524;12.404;2023-04-15T04:40:41;2.00;99.90
41882;DHT22;27562;47.524;12.404;2023-04-15T04:43:06;2.10;99.90
41882;DHT22;27562;47.524;12.404;2023-04-15T04:45:32;2.10;99.90
41882;DHT22;27562;47.524;12.404;2023-04-15T04:47:58;2.10;99.90
41882;DHT22;27562;47.524;12.404;2023-04-15T04:50:23;2.10;99.90
41882;DHT22;27562;47.524;12.404;2023-04-15T04:52:49;2.10;99.90
41882;DHT22;27562;47.524;12.404;2023-04-15T04:55:15;2.10;99.90
41882;DHT22;27562;47.524;12.404;2023-04-15T04:57:41;2.10;99.90
41882;DHT22;27562;47.524;12.404;2023-04-15T05:00:07;2.10;99.90
41882;DHT22;27562;47.524;12.404;2023-04-15T05:02:33;2.10;99.90
41882;DHT22;27562;47.524;12.404;2023-04-15T05:04:59;2.10;99.90
41882;DHT22;27562;47.524;12.404;2023-04-15T05:07:26;2.10;99.90
41882;DHT22;27562;47.524;12.404;2023-04-15T05:09:52;2.10;99.90
41882;DHT22;27562;47.524;12.404;2023-04-15T05:12:17;2.10;99.90
41882;DHT22;27562;47.524;12.404;2023-04-15T05:14:43;2.10;99.90
41882;DHT22;27562;47.524;12.404;2023-04-15T05:17:09;2.10;99.90
41882;DHT22;27562;47.524;12.404;2023-04-15T05:19:35;2.10;99.90
41882;DHT22;27562;47.524;12.404;2023-04-15T05:22:01;2.10;99.90
41882;DHT22;27562;47.524;12.404;2023-04-15T05:24:27;2.10;99.90
41882;DHT22;27562;47.524;12.404;2023-04-15T05:26:53;2.20;99.90
41882;DHT22;27562;47.524;12.404;2023-04-15T05:29:19;2.20;99.90
41882;DHT22;27562;47.524;12.404;2023-04-15T05:31:45;2.20;99.90
41882;DHT22;27562;47.524;12.404;2023-04-15T05:34:11;2.20;99.90
41882;DHT22;27562;47.524;12.404;2023-04-15T05:36:37;2.20;99.90
41882;DHT22;27562;47.524;12.404;2023-04-15T05:39:02;2.20;99.90
41882;DHT22;27562;47.524;12.404;2023-04-15T05:41:28;2.20;99.90
41882;DHT22;27562;47.524;12.404;2023-04-15T05:43:54;2.20;99.90
41882;DHT22;27562;47.524;12.404;2023-04-15T05:46:20;2.20;99.90
41882;DHT22;27562;47.524;12.404;2023-04-15T05:48:45;2.20;99.90
41882;DHT22;27562;47.524;12.404;2023-04-15T05:51:11;2.20;99.90
41882;DHT22;27562;47.524;12.404;2023-04-15T05:53:37;2.20;99.90
41882;DHT22;27562;47.524;12.404;2023-04-15T05:56:03;2.20;99.90
41882;DHT22;27562;47.524;12.404;2023-04-15T05:58:29;2.20;99.90
41882;DHT22;27562;47.524;12.404;2023-04-15T06:00:54;2.20;99.90
41882;DHT22;27562;47.524;12.404;2023-04-15T06:03:21;2.20;99.90
41882;DHT22;27562;47.524;12.404;2023-04-15T06:05:47;2.10;99.90
41882;DHT22;27562;47.524;12.404;2023-04-15T06:08:13;2.10;99.90
41882;DHT22;27562;47.524;12.404;2023-04-15T06:10:38;2.10;99.90
41882;DHT22;27562;47.524;12.404;2023-04-15T06:13:04;2.10;99.90
41882;DHT22;27562;47.524;12.404;2023-04-15T06:15:30;2.10;99.90
41882;DHT22;27562;47.524;12.404;2023-04-15T06:17:56;2.10;99.90
41882;DHT22;27562;47.524;12.404;2023-04-15T06:20:22;2.10;99.90
41882;DHT22;27562;47.524;12.404;2023-04-15T06:22:48;2.10;99.90
41882;DHT22;27562;47.524;12.404;2023-04-15T06:25:14;2.10;99.90
41882;DHT22;27562;47.524;12.404;2023-04-15T06:27:39;2.10;99.90
41882;DHT22;27562;47.524;12.404;2023-04-15T06:30:06;2.10;99.90
41882;DHT22;27562;47.524;12.404;2023-04-15T06:32:32;2.10;99.90
41882;DHT22;27562;47.524;12.404;2023-04-15T06:34:58;2.10;99.90
41882;DHT22;27562;47.524;12.404;2023-04-15T06:37:23;2.10;99.90
41882;DHT22;27562;47.524;12.404;2023-04-15T06:39:49;2.20;99.90
41882;DHT22;27562;47.524;12.404;2023-04-15T06:42:15;2.20;99.90
41882;DHT22;27562;47.524;12.404;2023-04-15T06:44:41;2.20;99.90
41882;DHT22;27562;47.524;12.404;2023-04-15T06:47:06;2.20;99.90
41882;DHT22;27562;47.524;12.404;2023-04-15T06:49:33;2.20;99.90
41882;DHT22;27562;47.524;12.404;2023-04-15T06:52:00;2.10;99.90
41882;DHT22;27562;47.524;12.404;2023-04-15T06:54:26;2.20;99.90
41882;DHT22;27562;47.524;12.404;2023-04-15T06:56:51;2.20;99.90
41882;DHT22;27562;47.524;12.404;2023-04-15T06:59:17;2.20;99.90
41882;DHT22;27562;47.524;12.404;2023-04-15T07:01:43;2.20;99.90
41882;DHT22;27562;47.524;12.404;2023-04-15T07:04:09;2.30;99.90
41882;DHT22;27562;47.524;12.404;2023-04-15T07:06:35;2.40;99.90
41882;DHT22;27562;47.524;12.404;2023-04-15T07:09:01;2.40;99.90
41882;DHT22;27562;47.524;12.404;2023-04-15T07:11:29;2.40;99.90
41882;DHT22;27562;47.524;12.404;2023-04-15T07:13:56;2.50;99.90
41882;DHT22;27562;47.524;12.404;2023-04-15T07:16:22;2.60;99.90
41882;DHT22;27562;47.524;12.404;2023-04-15T07:18:47;2.60;99.90
41882;DHT22;27562;47.524;12.404;2023-04-15T07:21:13;2.60;99.90
41882;DHT22;27562;47.524;12.404;2023-04-15T07:23:39;2.70;99.90
41882;DHT22;27562;47.524;12.404;2023-04-15T07:26:05;2.70;99.90
41882;DHT22;27562;47.524;12.404;2023-04-15T07:28:30;2.80;99.90
41882;DHT22;27562;47.524;12.404;2023-04-15T07:30:56;2.80;99.90
41882;DHT22;27562;47.524;12.404;2023-04-15T07:33:22;2.80;99.90
41882;DHT22;27562;47.524;12.404;2023-04-15T07:35:48;2.80;99.90
41882;DHT22;27562;47.524;12.404;2023-04-15T07:38:14;2.90;99.90
41882;DHT22;27562;47.524;12.404;2023-04-15T07:40:40;2.80;99.90
41882;DHT22;27562;47.524;12.404;2023-04-15T07:43:07;2.90;99.90
41882;DHT22;27562;47.524;12.404;2023-04-15T07:45:33;2.80;99.90
41882;DHT22;27562;47.524;12.404;2023-04-15T07:48:01;2.90;99.90
41882;DHT22;27562;47.524;12.404;2023-04-15T07:50:27;2.80;99.90
41882;DHT22;27562;47.524;12.404;2023-04-15T07:52:53;2.80;99.90
41882;DHT22;27562;47.524;12.404;2023-04-15T07:55:19;2.90;99.90
41882;DHT22;27562;47.524;12.404;2023-04-15T07:57:47;2.90;99.90
41882;DHT22;27562;47.524;12.404;2023-04-15T08:00:14;2.90;99.90
41882;DHT22;27562;47.524;12.404;2023-04-15T08:02:41;2.90;99.90
41882;DHT22;27562;47.524;12.404;2023-04-15T08:05:08;3.00;99.90
41882;DHT22;27562;47.524;12.404;2023-04-15T08:07:36;3.00;99.90
41882;DHT22;27562;47.524;12.404;2023-04-15T08:10:02;3.00;99.90
41882;DHT22;27562;47.524;12.404;2023-04-15T08:12:28;3.00;99.90
41882;DHT22;27562;47.524;12.404;2023-04-15T08:14:54;3.00;99.90
41882;DHT22;27562;47.524;12.404;2023-04-15T08:17:20;3.10;99.90
41882;DHT22;27562;47.524;12.404;2023-04-15T08:19:46;3.10;99.90
41882;DHT22;27562;47.524;12.404;2023-04-15T08:22:13;3.10;99.90
41882;DHT22;27562;47.524;12.404;2023-04-15T08:24:38;3.10;99.90
41882;DHT22;27562;47.524;12.404;2023-04-15T08:27:04;3.10;99.90
41882;DHT22;27562;47.524;12.404;2023-04-15T08:29:33;3.20;99.90
41882;DHT22;27562;47.524;12.404;2023-04-15T08:32:00;3.30;99.90
41882;DHT22;27562;47.524;12.404;2023-04-15T08:34:26;3.30;99.90
41882;DHT22;27562;47.524;12.404;2023-04-15T08:36:52;3.40;99.90
41882;DHT22;27562;47.524;12.404;2023-04-15T08:39:18;3.40;99.90
41882;DHT22;27562;47.524;12.404;2023-04-15T08:41:52;3.50;99.90
41882;DHT22;27562;47.524;12.404;2023-04-15T08:44:19;3.50;99.90
41882;DHT22;27562;47.524;12.404;2023-04-15T08:46:46;3.50;99.90
41882;DHT22;27562;47.524;12.404;2023-04-15T08:49:13;3.50;99.90
41882;DHT22;27562;47.524;12.404;2023-04-15T08:51:40;3.60;99.90
41882;DHT22;27562;47.524;12.404;2023-04-15T08:54:07;3.50;99.90
41882;DHT22;27562;47.524;12.404;2023-04-15T08:56:33;3.50;99.90
41882;DHT22;27562;47.524;12.404;2023-04-15T08:59:00;3.50;99.90
41882;DHT22;27562;47.524;12.404;2023-04-15T09:01:26;3.50;99.90
41882;DHT22;27562;47.524;12.404;2023-04-15T09:03:52;3.40;99.90
41882;DHT22;27562;47.524;12.404;2023-04-15T09:06:20;3.40;99.90
41882;DHT22;27562;47.524;12.404;2023-04-15T09:08:46;3.30;99.90
41882;DHT22;27562;47.524;12.404;2023-04-15T09:11:12;3.30;99.90
41882;DHT22;27562;47.524;12.404;2023-04-15T09:13:39;3.30;99.90
41882;DHT22;27562;47.524;12.404;2023-04-15T09:16:06;3.30;99.90
41882;DHT22;27562;47.524;12.404;2023-04-15T09:18:34;3.30;99.90
41882;DHT22;27562;47.524;12.404;2023-04-15T09:21:18;3.20;99.90
41882;DHT22;27562;47.524;12.404;2023-04-15T09:23:56;3.20;99.90
41882;DHT22;27562;47.524;12.404;2023-04-15T09:26:36;3.20;99.90
41882;DHT22;27562;47.524;12.404;2023-04-15T09:29:09;3.20;99.90
41882;DHT22;27562;47.524;12.404;2023-04-15T09:31:38;3.20;99.90
41882;DHT22;27562;47.524;12.404;2023-04-15T09:34:04;3.20;99.90
41882;DHT22;27562;47.524;12.404;2023-04-15T09:36:58;3.30;99.90
41882;DHT22;27562;47.524;12.404;2023-04-15T09:39:23;3.30;99.90
41882;DHT22;27562;47.524;12.404;2023-04-15T09:42:09;3.30;99.90
41882;DHT22;27562;47.524;12.404;2023-04-15T09:44:35;3.30;99.90
41882;DHT22;27562;47.524;12.404;2023-04-15T09:47:01;3.30;99.90
41882;DHT22;27562;47.524;12.404;2023-04-15T09:49:27;3.30;99.90
41882;DHT22;27562;47.524;12.404;2023-04-15T09:51:58;3.30;99.90
41882;DHT22;27562;47.524;12.404;2023-04-15T09:54:34;3.30;99.90
41882;DHT22;27562;47.524;12.404;2023-04-15T09:57:09;3.30;99.90
41882;DHT22;27562;47.524;12.404;2023-04-15T09:59:36;3.30;99.90
41882;DHT22;27562;47.524;12.404;2023-04-15T10:02:04;3.30;99.90
41882;DHT22;27562;47.524;12.404;2023-04-15T10:04:34;3.30;99.90
41882;DHT22;27562;47.524;12.404;2023-04-15T10:07:03;3.20;99.90
41882;DHT22;27562;47.524;12.404;2023-04-15T10:09:30;3.20;99.90
41882;DHT22;27562;47.524;12.404;2023-04-15T10:11:56;3.20;99.90
41882;DHT22;27562;47.524;12.404;2023-04-15T10:14:22;3.20;99.90
41882;DHT22;27562;47.524;12.404;2023-04-15T10:16:50;3.20;99.90
41882;DHT22;27562;47.524;12.404;2023-04-15T10:19:22;3.30;99.90
41882;DHT22;27562;47.524;12.404;2023-04-15T10:21:50;3.30;99.90
41882;DHT22;27562;47.524;12.404;2023-04-15T10:24:16;3.30;99.90
41882;DHT22;27562;47.524;12.404;2023-04-15T10:26:43;3.30;99.90
41882;DHT22;27562;47.524;12.404;2023-04-15T10:29:09;3.30;99.90
41882;DHT22;27562;47.524;12.404;2023-04-15T10:31:36;3.30;99.90
41882;DHT22;27562;47.524;12.404;2023-04-15T10:34:03;3.30;99.90
41882;DHT22;27562;47.524;12.404;2023-04-15T10:36:31;3.30;99.90
41882;DHT22;27562;47.524;12.404;2023-04-15T10:38:57;3.20;99.90
41882;DHT22;27562;47.524;12.404;2023-04-15T10:41:24;3.20;99.90
41882;DHT22;27562;47.524;12.404;2023-04-15T10:44:03;3.30;99.90
41882;DHT22;27562;47.524;12.404;2023-04-15T10:49:14;3.30;99.90
41882;DHT22;27562;47.524;12.404;2023-04-15T10:51:46;3.40;99.90
41882;DHT22;27562;47.524;12.404;2023-04-15T10:59:38;3.40;99.90
41882;DHT22;27562;47.524;12.404;2023-04-15T11:02:04;3.50;99.90
41882;DHT22;27562;47.524;12.404;2023-04-15T11:13:03;3.60;99.90
41882;DHT22;27562;47.524;12.404;2023-04-15T11:15:40;3.60;99.90
41882;DHT22;27562;47.524;12.404;2023-04-15T11:20:43;3.70;99.90
41882;DHT22;27562;47.524;12.404;2023-04-15T11:23:10;3.70;99.90
41882;DHT22;27562;47.524;12.404;2023-04-15T11:25:36;3.70;99.90
41882;DHT22;27562;47.524;12.404;2023-04-15T11:28:02;3.70;99.90
41882;DHT22;27562;47.524;12.404;2023-04-15T11:30:32;3.70;99.90
41882;DHT22;27562;47.524;12.404;2023-04-15T11:33:01;3.70;99.90
41882;DHT22;27562;47.524;12.404;2023-04-15T11:35:27;3.70;99.90
41882;DHT22;27562;47.524;12.404;2023-04-15T11:37:53;3.70;99.90
41882;DHT22;27562;47.524;12.404;2023-04-15T11:40:27;3.80;99.90
41882;DHT22;27562;47.524;12.404;2023-04-15T11:48:13;3.90;99.90
41882;DHT22;27562;47.524;12.404;2023-04-15T11:50:39;3.90;99.90
41882;DHT22;27562;47.524;12.404;2023-04-15T11:53:06;3.90;99.90
41882;DHT22;27562;47.524;12.404;2023-04-15T11:55:52;4.00;99.90
41882;DHT22;27562;47.524;12.404;2023-04-15T11:58:23;4.00;99.90
41882;DHT22;27562;47.524;12.404;2023-04-15T12:00:54;4.00;99.90
41882;DHT22;27562;47.524;12.404;2023-04-15T12:03:29;4.10;99.90
41882;DHT22;27562;47.524;12.404;2023-04-15T12:06:10;4.20;99.90
41882;DHT22;27562;47.524;12.404;2023-04-15T12:11:42;4.30;99.90
41882;DHT22;27562;47.524;12.404;2023-04-15T12:14:11;4.30;99.90
41882;DHT22;27562;47.524;12.404;2023-04-15T12:16:41;4.40;99.90
41882;DHT22;27562;47.524;12.404;2023-04-15T12:19:12;4.40;99.90
41882;DHT22;27562;47.524;12.404;2023-04-15T12:21:40;4.50;99.90
41882;DHT22;27562;47.524;12.404;2023-04-15T12:24:08;4.50;99.90
41882;DHT22;27562;47.524;12.404;2023-04-15T12:26:36;4.60;99.90
41882;DHT22;27562;47.524;12.404;2023-04-15T12:29:09;4.60;99.90
41882;DHT22;27562;47.524;12.404;2023-04-15T12:31:35;4.60;99.90
41882;DHT22;27562;47.524;12.404;2023-04-15T12:34:02;4.70;99.90
41882;DHT22;27562;47.524;12.404;2023-04-15T12:36:29;4.70;99.90
41882;DHT22;27562;47.524;12.404;2023-04-15T12:39:01;4.80;99.90
41882;DHT22;27562;47.524;12.404;2023-04-15T12:41:27;4.80;99.90
41882;DHT22;27562;47.524;12.404;2023-04-15T12:43:53;4.80;99.90
41882;DHT22;27562;47.524;12.404;2023-04-15T12:46:19;4.90;99.90
41882;DHT22;27562;47.524;12.404;2023-04-15T12:48:44;4.90;99.90
41882;DHT22;27562;47.524;12.404;2023-04-15T12:51:10;4.90;99.90
41882;DHT22;27562;47.524;12.404;2023-04-15T12:53:36;5.00;99.90
41882;DHT22;27562;47.524;12.404;2023-04-15T12:56:02;5.00;99.90
41882;DHT22;27562;47.524;12.404;2023-04-15T12:58:28;5.00;99.90
41882;DHT22;27562;47.524;12.404;2023-04-15T13:00:54;5.10;99.90
41882;DHT22;27562;47.524;12.404;2023-04-15T13:03:20;5.10;99.90
41882;DHT22;27562;47.524;12.404;2023-04-15T13:05:46;5.20;99.90
41882;DHT22;27562;47.524;12.404;2023-04-15T13:08:12;5.20;99.90
41882;DHT22;27562;47.524;12.404;2023-04-15T13:10:37;5.20;99.90
41882;DHT22;27562;47.524;12.404;2023-04-15T13:13:04;5.20;99.90
41882;DHT22;27562;47.524;12.404;2023-04-15T13:15:30;5.20;99.90
41882;DHT22;27562;47.524;12.404;2023-04-15T13:17:56;5.30;99.90
41882;DHT22;27562;47.524;12.404;2023-04-15T13:20:21;5.20;99.90
41882;DHT22;27562;47.524;12.404;2023-04-15T13:22:47;5.20;99.90
41882;DHT22;27562;47.524;12.404;2023-04-15T13:25:13;5.20;99.90
41882;DHT22;27562;47.524;12.404;2023-04-15T13:27:39;5.20;99.90
41882;DHT22;27562;47.524;12.404;2023-04-15T13:30:06;5.20;99.90
41882;DHT22;27562;47.524;12.404;2023-04-15T13:32:32;5.20;99.90
41882;DHT22;27562;47.524;12.404;2023-04-15T13:34:58;5.20;99.90
41882;DHT22;27562;47.524;12.404;2023-04-15T13:37:28;5.20;99.90
41882;DHT22;27562;47.524;12.404;2023-04-15T13:39:54;5.20;99.90
41882;DHT22;27562;47.524;12.404;2023-04-15T13:42:21;5.10;99.90
41882;DHT22;27562;47.524;12.404;2023-04-15T13:44:48;5.10;99.90
41882;DHT22;27562;47.524;12.404;2023-04-15T13:47:14;5.10;99.90
41882;DHT22;27562;47.524;12.404;2023-04-15T13:49:40;5.10;99.90
41882;DHT22;27562;47.524;12.404;2023-04-15T13:52:06;5.10;99.90
41882;DHT22;27562;47.524;12.404;2023-04-15T13:54:32;5.20;99.90
41882;DHT22;27562;47.524;12.404;2023-04-15T13:56:57;5.20;99.90
41882;DHT22;27562;47.524;12.404;2023-04-15T13:59:23;5.20;99.90
41882;DHT22;27562;47.524;12.404;2023-04-15T14:01:49;5.10;99.90
41882;DHT22;27562;47.524;12.404;2023-04-15T14:04:14;5.10;99.90
41882;DHT22;27562;47.524;12.404;2023-04-15T14:06:40;5.10;99.90
41882;DHT22;27562;47.524;12.404;2023-04-15T14:09:06;5.10;99.90
41882;DHT22;27562;47.524;12.404;2023-04-15T14:11:32;5.10;99.90
41882;DHT22;27562;47.524;12.404;2023-04-15T14:13:59;5.10;99.90
41882;DHT22;27562;47.524;12.404;2023-04-15T14:16:25;5.10;99.90
41882;DHT22;27562;47.524;12.404;2023-04-15T14:18:51;5.10;99.90
41882;DHT22;27562;47.524;12.404;2023-04-15T14:21:16;5.10;99.90
41882;DHT22;27562;47.524;12.404;2023-04-15T14:23:42;5.10;99.90
41882;DHT22;27562;47.524;12.404;2023-04-15T14:26:08;5.10;99.90
41882;DHT22;27562;47.524;12.404;2023-04-15T14:28:34;5.10;99.90
41882;DHT22;27562;47.524;12.404;2023-04-15T14:31:00;5.10;99.90
41882;DHT22;27562;47.524;12.404;2023-04-15T14:33:25;5.10;99.90
41882;DHT22;27562;47.524;12.404;2023-04-15T14:35:51;5.10;99.90
41882;DHT22;27562;47.524;12.404;2023-04-15T14:38:17;5.00;99.90
41882;DHT22;27562;47.524;12.404;2023-04-15T14:40:43;5.00;99.90
41882;DHT22;27562;47.524;12.404;2023-04-15T14:43:09;5.00;99.90
41882;DHT22;27562;47.524;12.404;2023-04-15T14:45:36;5.00;99.90
41882;DHT22;27562;47.524;12.404;2023-04-15T14:48:03;5.00;99.90
41882;DHT22;27562;47.524;12.404;2023-04-15T14:50:31;5.00;99.90
41882;DHT22;27562;47.524;12.404;2023-04-15T14:52:57;5.00;99.90
41882;DHT22;27562;47.524;12.404;2023-04-15T14:55:23;5.00;99.90
41882;DHT22;27562;47.524;12.404;2023-04-15T14:57:49;5.00;99.90
41882;DHT22;27562;47.524;12.404;2023-04-15T15:00:15;5.10;99.90
41882;DHT22;27562;47.524;12.404;2023-04-15T15:02:40;5.20;99.90
41882;DHT22;27562;47.524;12.404;2023-04-15T15:05:09;5.20;99.90
41882;DHT22;27562;47.524;12.404;2023-04-15T15:07:37;5.30;99.90
41882;DHT22;27562;47.524;12.404;2023-04-15T15:10:04;5.20;99.90
41882;DHT22;27562;47.524;12.404;2023-04-15T15:12:31;5.30;99.90
41882;DHT22;27562;47.524;12.404;2023-04-15T15:14:58;5.30;99.90
41882;DHT22;27562;47.524;12.404;2023-04-15T15:17:24;5.30;99.90
41882;DHT22;27562;47.524;12.404;2023-04-15T15:19:49;5.30;99.90
41882;DHT22;27562;47.524;12.404;2023-04-15T15:22:15;5.30;99.90
41882;DHT22;27562;47.524;12.404;2023-04-15T15:24:41;5.30;99.90
41882;DHT22;27562;47.524;12.404;2023-04-15T15:27:07;5.30;99.90
41882;DHT22;27562;47.524;12.404;2023-04-15T15:29:33;5.30;99.90
41882;DHT22;27562;47.524;12.404;2023-04-15T15:31:59;5.20;99.90
41882;DHT22;27562;47.524;12.404;2023-04-15T15:34:25;5.20;99.90
41882;DHT22;27562;47.524;12.404;2023-04-15T15:36:51;5.10;99.90
41882;DHT22;27562;47.524;12.404;2023-04-15T15:39:18;5.10;99.90
41882;DHT22;27562;47.524;12.404;2023-04-15T15:41:43;5.10;99.90
41882;DHT22;27562;47.524;12.404;2023-04-15T15:44:09;5.10;99.90
41882;DHT22;27562;47.524;12.404;2023-04-15T15:46:35;5.10;99.90
41882;DHT22;27562;47.524;12.404;2023-04-15T15:49:02;5.10;99.90
41882;DHT22;27562;47.524;12.404;2023-04-15T15:51:28;5.10;99.90
41882;DHT22;27562;47.524;12.404;2023-04-15T15:53:54;5.20;99.90